Terminal Aerodrome Forecast
Issued by NWS

Home | Current Version | Previous Version | Graphics & Text | Print | Product List | Glossary On
Versions: 1 2 3 4 5 6 7 8 9 10 11 12 13 14 15 16
000
FTUS43 KMPX 232122 AAA
TAFRWF
TAF AMD
KRWF 232122Z 2321/2418 16012KT P6SM -SHRA FEW030 OVC050
     FM240100 16010KT P6SM OVC050
      TEMPO 2401/2403 4SM TSRA OVC025CB
     FM240900 27006KT 6SM BR VCSH SCT015 OVC030
     FM241300 31007KT P6SM FEW025=

USA.gov is the U.S. government's official web portal to all federal, state and local government web resources and services.